createdAt,value
2022-09-18T00:00:52.311Z,2.10
2022-09-18T00:03:24.568Z,2.35
2022-09-18T00:05:56.631Z,2.10
2022-09-18T00:08:28.812Z,2.38
2022-09-18T00:11:06.444Z,2.78
2022-09-18T00:13:39.455Z,2.40
2022-09-18T00:16:15.143Z,2.33
2022-09-18T00:18:48.114Z,2.58
2022-09-18T00:21:24.746Z,2.22
2022-09-18T00:23:59.016Z,1.92
2022-09-18T00:26:31.548Z,2.38
2022-09-18T00:29:05.061Z,2.35
2022-09-18T00:31:37.577Z,1.98
2022-09-18T00:34:14.524Z,2.03
2022-09-18T00:36:46.534Z,2.13
2022-09-18T00:39:18.446Z,3.50
2022-09-18T00:41:50.437Z,2.03
2022-09-18T00:44:41.135Z,2.05
2022-09-18T00:47:28.744Z,2.78
2022-09-18T00:50:08.235Z,2.70
2022-09-18T00:53:02.258Z,1.80
2022-09-18T00:55:39.673Z,1.90
2022-09-18T00:58:12.228Z,2.30
2022-09-18T01:00:44.283Z,2.03
2022-09-18T01:03:16.297Z,1.85
2022-09-18T01:06:33.726Z,2.25
2022-09-18T01:09:28.548Z,2.10
2022-09-18T01:12:29.517Z,1.80
2022-09-18T01:15:21.512Z,2.55
2022-09-18T01:18:20.747Z,1.80
2022-09-18T01:21:05.058Z,2.58
2022-09-18T01:24:06.641Z,1.83
2022-09-18T01:26:57.797Z,2.33
2022-09-18T01:30:01.005Z,3.72
2022-09-18T01:32:42.165Z,2.10
2022-09-18T01:35:47.173Z,1.80
2022-09-18T01:38:34.243Z,2.22
2022-09-18T01:41:16.748Z,1.83
2022-09-18T01:43:54.630Z,1.98
2022-09-18T01:46:26.914Z,1.70
2022-09-18T01:49:28.394Z,2.63
2022-09-18T01:52:11.028Z,3.83
2022-09-18T01:54:46.109Z,2.10
2022-09-18T01:57:56.377Z,2.33
2022-09-18T02:00:30.582Z,1.95
2022-09-18T02:03:26.488Z,2.30
2022-09-18T02:06:02.510Z,1.90
2022-09-18T02:08:51.195Z,1.80
2022-09-18T02:11:23.965Z,1.75
2022-09-18T02:14:06.148Z,2.40
2022-09-18T02:16:46.928Z,1.70
2022-09-18T02:19:35.756Z,1.35
2022-09-18T02:22:14.133Z,2.00
2022-09-18T02:24:49.479Z,1.95
2022-09-18T02:27:23.034Z,1.88
2022-09-18T02:29:56.426Z,3.53
2022-09-18T02:32:28.959Z,1.70
2022-09-18T02:35:00.925Z,1.50
2022-09-18T02:37:59.268Z,3.35
2022-09-18T02:41:03.251Z,1.75
2022-09-18T02:43:55.972Z,2.10
2022-09-18T02:46:52.063Z,2.10
2022-09-18T02:49:55.399Z,2.42
2022-09-18T02:52:57.541Z,1.92
2022-09-18T02:55:48.973Z,1.98
2022-09-18T02:58:31.584Z,2.30
2022-09-18T03:01:05.460Z,1.92
2022-09-18T03:03:39.533Z,2.13
2022-09-18T03:06:11.561Z,2.17
2022-09-18T03:08:43.596Z,2.05
2022-09-18T03:11:15.532Z,1.77
2022-09-18T03:13:47.549Z,2.03
2022-09-18T03:16:19.534Z,2.38
2022-09-18T03:18:51.469Z,1.92
2022-09-18T03:21:23.448Z,1.73
2022-09-18T03:23:55.712Z,3.35
2022-09-18T03:26:27.742Z,1.77
2022-09-18T03:29:00.071Z,1.67
2022-09-18T03:31:32.116Z,2.50
2022-09-18T03:34:04.800Z,1.85
2022-09-18T03:36:36.954Z,3.35
2022-09-18T03:39:08.845Z,2.08
2022-09-18T03:41:40.773Z,1.80
2022-09-18T03:44:12.649Z,2.28
2022-09-18T03:46:44.654Z,2.15
2022-09-18T03:49:16.636Z,1.70
2022-09-18T03:51:48.518Z,1.73
2022-09-18T03:54:20.459Z,2.13
2022-09-18T03:56:52.523Z,1.98
2022-09-18T03:59:24.419Z,1.83
2022-09-18T04:01:57.639Z,1.85
2022-09-18T04:04:30.027Z,2.25
2022-09-18T04:07:02.219Z,2.55
2022-09-18T04:09:34.789Z,2.08
2022-09-18T04:12:07.065Z,1.63
2022-09-18T04:14:38.973Z,2.20
2022-09-18T04:17:11.204Z,2.00
2022-09-18T04:19:43.088Z,1.63
2022-09-18T04:22:15.055Z,1.90
2022-09-18T04:24:47.515Z,2.28
2022-09-18T04:27:19.676Z,1.83
2022-09-18T04:29:51.598Z,1.90
2022-09-18T04:32:23.524Z,1.70
2022-09-18T04:34:55.487Z,1.80
2022-09-18T04:37:27.570Z,1.65
2022-09-18T04:39:59.524Z,1.42
2022-09-18T04:42:32.341Z,1.95
2022-09-18T04:45:04.992Z,2.28
2022-09-18T04:47:37.068Z,1.95
2022-09-18T04:50:10.962Z,1.77
2022-09-18T04:52:44.004Z,2.05
2022-09-18T04:55:15.977Z,1.88
2022-09-18T04:57:51.231Z,2.38
2022-09-18T05:00:26.370Z,1.60
2022-09-18T05:02:58.395Z,1.92
2022-09-18T05:05:30.584Z,1.42
2022-09-18T05:08:03.922Z,1.35
2022-09-18T05:10:35.892Z,1.58
2022-09-18T05:13:07.840Z,2.10
2022-09-18T05:15:39.763Z,1.83
2022-09-18T05:18:12.645Z,2.65
2022-09-18T05:20:44.529Z,2.20
2022-09-18T05:23:16.723Z,2.30
2022-09-18T05:25:48.671Z,1.80
2022-09-18T05:28:20.609Z,1.88
2022-09-18T05:30:52.600Z,1.38
2022-09-18T05:33:24.505Z,1.75
2022-09-18T05:35:57.909Z,1.33
2022-09-18T05:38:29.915Z,1.55
2022-09-18T05:41:03.067Z,1.80
2022-09-18T05:43:35.113Z,1.60
2022-09-18T05:46:07.179Z,1.70
2022-09-18T05:48:39.340Z,1.27
2022-09-18T05:51:11.278Z,2.58
2022-09-18T05:53:48.342Z,1.80
2022-09-18T05:56:20.369Z,2.42
2022-09-18T05:58:52.371Z,2.50
2022-09-18T06:01:24.528Z,1.92
2022-09-18T06:03:56.653Z,1.92
2022-09-18T06:06:29.809Z,2.97
2022-09-18T06:09:01.736Z,2.00
2022-09-18T06:11:33.970Z,2.00
2022-09-18T06:14:06.074Z,1.70
2022-09-18T06:16:42.111Z,1.85
2022-09-18T06:19:14.467Z,2.58
2022-09-18T06:21:46.605Z,2.10
2022-09-18T06:24:18.614Z,2.33
2022-09-18T06:26:50.540Z,2.60
2022-09-18T06:29:22.484Z,2.10
2022-09-18T06:31:54.517Z,1.77
2022-09-18T06:34:26.521Z,2.17
2022-09-18T06:36:58.423Z,1.90
2022-09-18T06:39:30.317Z,1.80
2022-09-18T06:42:02.318Z,2.70
2022-09-18T06:44:34.239Z,2.03
2022-09-18T06:47:09.469Z,1.88
2022-09-18T06:49:42.557Z,1.70
2022-09-18T06:52:14.757Z,2.55
2022-09-18T06:54:47.848Z,3.05
2022-09-18T06:57:20.114Z,1.50
2022-09-18T06:59:52.018Z,2.17
2022-09-18T07:02:23.970Z,2.38
2022-09-18T07:04:56.025Z,1.90
2022-09-18T07:07:27.917Z,1.48
2022-09-18T07:09:59.958Z,1.83
2022-09-18T07:12:31.953Z,1.90
2022-09-18T07:15:04.209Z,1.73
2022-09-18T07:17:36.165Z,1.70
2022-09-18T07:20:10.039Z,1.75
2022-09-18T07:22:47.117Z,1.48
2022-09-18T07:25:19.540Z,1.70
2022-09-18T07:27:51.623Z,1.55
2022-09-18T07:30:23.638Z,1.77
2022-09-18T07:32:55.728Z,2.05
2022-09-18T07:35:28.599Z,1.77
2022-09-18T07:38:02.419Z,2.10
2022-09-18T07:40:34.973Z,1.75
2022-09-18T07:43:09.922Z,1.58
2022-09-18T07:45:44.829Z,1.20
2022-09-18T07:48:16.777Z,1.40
2022-09-18T07:50:49.000Z,1.55
2022-09-18T07:53:21.428Z,1.60
2022-09-18T07:55:56.088Z,2.40
2022-09-18T07:58:28.143Z,1.75
2022-09-18T08:01:04.789Z,1.80
2022-09-18T08:03:41.228Z,2.13
2022-09-18T08:06:13.696Z,1.67
2022-09-18T08:08:46.806Z,1.40
2022-09-18T08:11:22.501Z,2.88
2022-09-18T08:13:57.563Z,1.33
2022-09-18T08:16:29.554Z,1.65
2022-09-18T08:19:01.688Z,1.30
2022-09-18T08:21:33.866Z,1.70
2022-09-18T08:24:06.194Z,2.85
2022-09-18T08:26:38.841Z,1.42
2022-09-18T08:29:10.860Z,1.58
2022-09-18T08:31:42.898Z,1.40
2022-09-18T08:34:15.502Z,1.38
2022-09-18T08:36:47.544Z,2.08
2022-09-18T08:39:19.508Z,1.63
2022-09-18T08:42:57.656Z,1.65
2022-09-18T08:46:00.862Z,1.42
2022-09-18T08:48:43.240Z,0.85
2022-09-18T08:51:31.220Z,2.75
2022-09-18T08:55:08.328Z,1.40
2022-09-18T08:57:49.782Z,1.08
2022-09-18T09:00:42.706Z,1.45
2022-09-18T09:03:42.828Z,1.10
2022-09-18T09:07:10.329Z,0.68
2022-09-18T09:10:13.384Z,1.10
2022-09-18T09:13:05.018Z,1.42
2022-09-18T09:15:48.375Z,1.10
2022-09-18T09:18:41.361Z,2.65
2022-09-18T09:21:38.513Z,1.98
2022-09-18T09:24:31.431Z,1.10
2022-09-18T09:27:22.354Z,1.60
2022-09-18T09:30:21.165Z,1.10
2022-09-18T09:33:00.567Z,0.90
2022-09-18T09:35:43.053Z,1.30
2022-09-18T09:38:52.377Z,1.00
2022-09-18T09:41:42.614Z,0.90
2022-09-18T09:47:15.471Z,1.25
2022-09-18T09:50:09.111Z,1.40
2022-09-18T09:52:47.451Z,1.42
2022-09-18T09:55:35.305Z,1.85
2022-09-18T09:58:43.453Z,1.50
2022-09-18T10:01:27.311Z,1.17
2022-09-18T10:04:02.204Z,1.10
2022-09-18T10:06:52.250Z,1.23
2022-09-18T10:10:17.050Z,1.67
2022-09-18T10:13:03.047Z,1.10
2022-09-18T10:15:49.263Z,1.15
2022-09-18T10:18:31.183Z,1.45
2022-09-18T10:21:14.534Z,2.75
2022-09-18T10:24:26.766Z,2.63
2022-09-18T10:27:12.324Z,1.45
2022-09-18T10:29:44.443Z,1.70
2022-09-18T10:32:41.900Z,1.92
2022-09-18T10:35:29.582Z,2.15
2022-09-18T10:38:01.668Z,1.70
2022-09-18T10:40:37.850Z,2.20
2022-09-18T10:43:18.924Z,2.45
2022-09-18T10:45:56.317Z,2.65
2022-09-18T10:48:29.462Z,2.40
2022-09-18T10:51:04.395Z,2.03
2022-09-18T10:53:42.725Z,3.10
2022-09-18T10:56:20.582Z,3.47
2022-09-18T10:58:55.945Z,2.47
2022-09-18T11:01:29.612Z,1.95
2022-09-18T11:04:04.486Z,1.52
2022-09-18T11:06:37.863Z,2.13
2022-09-18T11:09:18.452Z,3.03
2022-09-18T11:11:51.522Z,2.67
2022-09-18T11:14:50.705Z,2.35
2022-09-18T11:17:29.302Z,1.77
2022-09-18T11:20:03.833Z,2.38
2022-09-18T11:22:44.560Z,1.40
2022-09-18T11:25:21.717Z,0.80
2022-09-18T11:27:58.540Z,1.30
2022-09-18T11:30:36.184Z,0.73
2022-09-18T11:33:30.671Z,1.58
2022-09-18T11:36:07.930Z,0.95
2022-09-18T11:38:45.731Z,1.52
2022-09-18T11:41:36.948Z,0.93
2022-09-18T11:44:17.044Z,0.60
2022-09-18T11:47:20.800Z,1.05
2022-09-18T11:50:02.288Z,1.95
2022-09-18T11:52:51.916Z,0.73
2022-09-18T11:55:40.196Z,0.85
2022-09-18T11:58:18.656Z,0.80
2022-09-18T12:01:43.302Z,1.02
2022-09-18T12:04:42.296Z,0.93
2022-09-18T12:07:38.392Z,0.70
2022-09-18T12:10:54.157Z,0.52
2022-09-18T12:13:58.775Z,0.77
2022-09-18T12:17:01.269Z,0.80
2022-09-18T12:19:38.241Z,1.23
2022-09-18T12:22:20.168Z,1.00
2022-09-18T12:24:52.166Z,1.10
2022-09-18T12:28:02.343Z,1.80
2022-09-18T12:30:54.275Z,1.70
2022-09-18T12:34:19.294Z,1.88
2022-09-18T12:37:05.759Z,1.70
2022-09-18T12:40:09.699Z,1.25
2022-09-18T12:43:01.798Z,2.17
2022-09-18T12:46:11.153Z,1.60
2022-09-18T12:49:55.233Z,1.17
2022-09-18T12:53:10.287Z,2.08
2022-09-18T12:56:06.931Z,2.53
2022-09-18T12:59:10.985Z,1.77
2022-09-18T13:01:56.664Z,1.70
2022-09-18T13:04:39.185Z,1.95
2022-09-18T13:07:22.221Z,2.33
2022-09-18T13:10:06.135Z,2.10
2022-09-18T13:13:04.448Z,3.83
2022-09-18T13:15:46.410Z,2.20
2022-09-18T13:18:31.750Z,2.08
2022-09-18T13:21:16.088Z,2.00
2022-09-18T13:23:49.491Z,2.45
2022-09-18T13:26:24.722Z,1.85
2022-09-18T13:28:57.033Z,1.35
2022-09-18T13:31:32.161Z,1.60
2022-09-18T13:34:16.734Z,1.63
2022-09-18T13:36:48.666Z,1.65
2022-09-18T13:39:37.587Z,1.80
2022-09-18T13:42:32.360Z,2.03
2022-09-18T13:45:20.855Z,2.13
2022-09-18T13:48:35.540Z,1.88
2022-09-18T13:51:33.102Z,1.80
2022-09-18T13:54:11.169Z,1.75
2022-09-18T13:57:02.909Z,1.98
2022-09-18T13:59:47.518Z,1.83
2022-09-18T14:02:31.611Z,1.85
2022-09-18T14:05:38.121Z,1.80
2022-09-18T14:08:19.391Z,2.25
2022-09-18T14:11:17.234Z,2.45
2022-09-18T14:13:54.371Z,1.77
2022-09-18T14:16:33.190Z,3.50
2022-09-18T14:19:30.635Z,2.92
2022-09-18T14:22:03.042Z,1.85
2022-09-18T14:24:50.520Z,2.17
2022-09-18T14:27:36.296Z,2.33
2022-09-18T14:30:27.015Z,1.83
2022-09-18T14:33:26.237Z,2.08
2022-09-18T14:36:05.025Z,2.88
2022-09-18T14:38:38.899Z,2.40
2022-09-18T14:41:23.497Z,2.80
2022-09-18T14:44:01.843Z,2.63
2022-09-18T14:46:34.113Z,2.40
2022-09-18T14:49:34.498Z,2.25
2022-09-18T14:55:19.486Z,2.53
2022-09-18T14:57:59.195Z,2.00
2022-09-18T15:00:34.246Z,3.05
2022-09-18T15:03:18.585Z,1.50
2022-09-18T15:05:55.775Z,1.95
2022-09-18T15:08:27.961Z,2.22
2022-09-18T15:11:00.061Z,2.60
2022-09-18T15:13:37.832Z,3.08
2022-09-18T15:16:27.471Z,2.35
2022-09-18T15:19:00.681Z,3.85
2022-09-18T15:21:34.011Z,3.20
2022-09-18T15:24:06.427Z,1.42
2022-09-18T15:26:47.878Z,1.60
2022-09-18T15:29:26.973Z,1.70
2022-09-18T15:32:02.216Z,1.50
2022-09-18T15:34:46.505Z,1.33
2022-09-18T15:37:23.887Z,1.55
2022-09-18T15:40:09.384Z,2.63
2022-09-18T15:42:53.286Z,2.40
2022-09-18T15:45:29.083Z,1.90
2022-09-18T15:48:40.005Z,1.33
2022-09-18T15:51:28.886Z,3.20
2022-09-18T15:54:13.236Z,1.63
2022-09-18T15:56:58.520Z,2.55
2022-09-18T15:59:40.827Z,2.03
2022-09-18T16:02:32.165Z,3.22
2022-09-18T16:05:12.237Z,2.65
2022-09-18T16:08:06.276Z,2.60
2022-09-18T16:10:51.128Z,1.83
2022-09-18T16:13:22.997Z,2.75
2022-09-18T16:16:23.871Z,1.60
2022-09-18T16:19:10.353Z,1.80
2022-09-18T16:21:44.175Z,1.67
2022-09-18T16:24:29.744Z,2.55
2022-09-18T16:27:08.287Z,1.75
2022-09-18T16:29:40.398Z,1.90
2022-09-18T16:32:13.223Z,1.50
2022-09-18T16:34:46.807Z,1.35
2022-09-18T16:37:19.224Z,1.42
2022-09-18T16:39:51.185Z,1.35
2022-09-18T16:42:23.922Z,1.60
2022-09-18T16:44:55.874Z,1.73
2022-09-18T16:47:27.859Z,1.58
2022-09-18T16:50:00.412Z,1.50
2022-09-18T16:52:32.330Z,1.50
2022-09-18T16:55:04.723Z,1.45
2022-09-18T16:57:36.870Z,2.65
2022-09-18T17:00:10.712Z,1.60
2022-09-18T17:02:42.821Z,1.50
2022-09-18T17:05:15.621Z,1.15
2022-09-18T17:07:47.609Z,1.77
2022-09-18T17:10:19.565Z,1.25
2022-09-18T17:12:51.508Z,1.20
2022-09-18T17:15:23.557Z,1.60
2022-09-18T17:17:55.760Z,1.13
2022-09-18T17:20:27.731Z,1.65
2022-09-18T17:22:59.849Z,1.45
2022-09-18T17:25:31.832Z,2.80
2022-09-18T17:28:03.877Z,3.30
2022-09-18T17:30:39.255Z,3.42
2022-09-18T17:33:11.463Z,2.05
2022-09-18T17:35:43.444Z,1.50
2022-09-18T17:38:16.084Z,1.60
2022-09-18T17:41:00.675Z,1.60
2022-09-18T17:43:33.166Z,1.50
2022-09-18T17:46:09.343Z,1.40
2022-09-18T17:48:41.720Z,1.88
2022-09-18T17:51:18.637Z,1.30
2022-09-18T17:53:57.602Z,1.90
2022-09-18T17:56:30.568Z,2.00
2022-09-18T17:59:09.778Z,2.13
2022-09-18T18:01:46.190Z,1.58
2022-09-18T18:04:18.267Z,1.75
2022-09-18T18:06:50.308Z,2.03
2022-09-18T18:09:22.834Z,2.60
2022-09-18T18:11:55.244Z,2.10
2022-09-18T18:14:31.259Z,1.80
2022-09-18T18:17:04.188Z,2.17
2022-09-18T18:19:36.124Z,2.80
2022-09-18T18:22:08.099Z,2.10
2022-09-18T18:24:40.124Z,2.03
2022-09-18T18:27:12.170Z,1.85
2022-09-18T18:29:45.568Z,3.35
2022-09-18T18:32:18.388Z,2.10
2022-09-18T18:34:50.543Z,2.00
2022-09-18T18:37:22.499Z,1.85
2022-09-18T18:39:54.495Z,1.90
2022-09-18T18:42:28.319Z,2.88
2022-09-18T18:45:01.118Z,2.75
2022-09-18T18:47:33.183Z,2.03
2022-09-18T18:50:06.789Z,1.40
2022-09-18T18:52:38.719Z,1.98
2022-09-18T18:55:10.971Z,2.15
2022-09-18T18:57:42.939Z,2.40
2022-09-18T19:00:14.960Z,2.28
2022-09-18T19:02:49.007Z,1.90
2022-09-18T19:05:27.788Z,1.90
2022-09-18T19:07:59.737Z,3.30
2022-09-18T19:10:31.981Z,3.60
2022-09-18T19:13:04.777Z,3.80
2022-09-18T19:15:38.525Z,3.83
2022-09-18T19:18:10.660Z,3.20
2022-09-18T19:20:42.574Z,3.00
2022-09-18T19:23:16.460Z,3.13
2022-09-18T19:25:48.413Z,2.92
2022-09-18T19:28:20.435Z,2.20
2022-09-18T19:30:53.792Z,3.67
2022-09-18T19:33:26.301Z,2.78
2022-09-18T19:36:07.544Z,2.08
2022-09-18T19:38:39.751Z,2.72
2022-09-18T19:41:39.703Z,2.42
2022-09-18T19:45:01.869Z,2.60
2022-09-18T19:47:50.962Z,2.85
2022-09-18T19:50:29.111Z,3.08
2022-09-18T19:53:02.066Z,5.55
2022-09-18T19:55:34.242Z,5.95
2022-09-18T19:58:07.248Z,4.75
2022-09-18T20:00:42.339Z,4.97
2022-09-18T20:03:15.401Z,3.22
2022-09-18T20:05:47.825Z,3.67
2022-09-18T20:08:19.841Z,3.47
2022-09-18T20:10:52.242Z,2.58
2022-09-18T20:13:26.284Z,3.13
2022-09-18T20:16:07.077Z,2.53
2022-09-18T20:18:39.483Z,1.98
2022-09-18T20:21:15.973Z,2.55
2022-09-18T20:23:48.450Z,3.78
2022-09-18T20:26:20.427Z,2.55
2022-09-18T20:28:52.678Z,2.58
2022-09-18T20:31:25.126Z,2.50
2022-09-18T20:33:58.548Z,2.25
2022-09-18T20:36:32.147Z,2.72
2022-09-18T20:39:04.240Z,4.07
2022-09-18T20:41:36.258Z,2.80
2022-09-18T20:44:08.734Z,2.85
2022-09-18T20:46:42.539Z,2.22
2022-09-18T20:49:17.529Z,2.90
2022-09-18T20:51:50.241Z,2.60
2022-09-18T20:54:22.883Z,1.88
2022-09-18T20:56:54.901Z,2.33
2022-09-18T20:59:27.080Z,1.98
2022-09-18T21:01:59.033Z,3.90
2022-09-18T21:04:31.029Z,2.50
2022-09-18T21:07:03.269Z,2.50
2022-09-18T21:09:35.304Z,2.00
2022-09-18T21:12:07.337Z,2.00
2022-09-18T21:14:39.261Z,2.22
2022-09-18T21:17:11.238Z,1.80
2022-09-18T21:19:43.127Z,1.90
2022-09-18T21:22:15.045Z,1.98
2022-09-18T21:24:46.959Z,2.05
2022-09-18T21:27:18.861Z,2.15
2022-09-18T21:29:50.788Z,1.60
2022-09-18T21:32:23.246Z,2.35
2022-09-18T21:34:55.176Z,2.00
2022-09-18T21:37:27.110Z,2.00
2022-09-18T21:39:59.058Z,2.08
2022-09-18T21:42:31.079Z,2.00
2022-09-18T21:45:03.538Z,2.80
2022-09-18T21:47:36.263Z,1.92
2022-09-18T21:50:08.592Z,1.90
2022-09-18T21:52:42.855Z,1.92
2022-09-18T21:55:14.831Z,1.90
2022-09-18T21:57:47.023Z,2.05
2022-09-18T22:00:18.977Z,1.85
2022-09-18T22:02:54.807Z,1.70
2022-09-18T22:05:29.413Z,2.63
2022-09-18T22:08:01.682Z,1.90
2022-09-18T22:10:35.295Z,1.98
2022-09-18T22:13:07.207Z,1.90
2022-09-18T22:15:39.089Z,1.75
2022-09-18T22:18:11.174Z,1.70
2022-09-18T22:20:43.099Z,1.60
2022-09-18T22:23:14.991Z,1.33
2022-09-18T22:25:46.927Z,1.70
2022-09-18T22:28:18.924Z,1.48
2022-09-18T22:30:51.007Z,1.75
2022-09-18T22:33:26.157Z,1.75
2022-09-18T22:36:06.421Z,1.80
2022-09-18T22:38:38.367Z,1.25
2022-09-18T22:41:10.498Z,2.20
2022-09-18T22:43:42.528Z,2.38
2022-09-18T22:46:16.993Z,2.55
2022-09-18T22:48:49.688Z,3.88
2022-09-18T22:51:27.336Z,3.55
2022-09-18T22:54:07.806Z,3.95
2022-09-18T22:56:45.423Z,3.55
2022-09-18T22:59:20.109Z,3.72
2022-09-18T23:01:55.363Z,3.53
2022-09-18T23:04:31.746Z,3.15
2022-09-18T23:07:04.304Z,2.92
2022-09-18T23:09:36.250Z,2.80
2022-09-18T23:12:08.172Z,2.53
2022-09-18T23:14:40.189Z,3.10
2022-09-18T23:17:12.536Z,2.78
2022-09-18T23:19:44.497Z,2.95
2022-09-18T23:22:16.420Z,2.95
2022-09-18T23:24:49.288Z,2.90
2022-09-18T23:27:21.214Z,2.75
2022-09-18T23:29:53.158Z,2.58
2022-09-18T23:32:25.230Z,3.10
2022-09-18T23:34:57.181Z,3.78
2022-09-18T23:37:29.523Z,3.40
2022-09-18T23:40:01.971Z,3.25
2022-09-18T23:42:33.913Z,3.60
2022-09-18T23:45:06.499Z,3.53
2022-09-18T23:47:38.448Z,3.10
2022-09-18T23:50:10.367Z,3.25
2022-09-18T23:52:43.674Z,3.20
2022-09-18T23:55:15.760Z,2.85
2022-09-18T23:57:47.696Z,2.92
